sensor_id;sensor_type;location;lat;lon;timestamp;P1;durP1;ratioP1;P2;durP2;ratioP2
16775;SDS011;8505;49.456;8.164;2022-12-07T00:01:04;11.70;;;6.88;;
16775;SDS011;8505;49.456;8.164;2022-12-07T00:03:33;13.88;;;6.72;;
16775;SDS011;8505;49.456;8.164;2022-12-07T00:06:01;13.13;;;6.82;;
16775;SDS011;8505;49.456;8.164;2022-12-07T00:08:32;11.98;;;7.00;;
16775;SDS011;8505;49.456;8.164;2022-12-07T00:11:02;13.33;;;7.13;;
16775;SDS011;8505;49.456;8.164;2022-12-07T00:13:31;12.10;;;6.95;;
16775;SDS011;8505;49.456;8.164;2022-12-07T00:16:00;11.65;;;6.90;;
16775;SDS011;8505;49.456;8.164;2022-12-07T00:18:29;10.00;;;6.80;;
16775;SDS011;8505;49.456;8.164;2022-12-07T00:20:59;12.02;;;6.82;;
16775;SDS011;8505;49.456;8.164;2022-12-07T00:23:27;11.98;;;6.97;;
16775;SDS011;8505;49.456;8.164;2022-12-07T00:25:55;11.68;;;6.70;;
16775;SDS011;8505;49.456;8.164;2022-12-07T00:28:24;11.50;;;6.63;;
16775;SDS011;8505;49.456;8.164;2022-12-07T00:30:51;11.93;;;6.97;;
16775;SDS011;8505;49.456;8.164;2022-12-07T00:33:19;11.63;;;7.07;;
16775;SDS011;8505;49.456;8.164;2022-12-07T00:35:46;13.50;;;8.15;;
16775;SDS011;8505;49.456;8.164;2022-12-07T00:38:21;11.43;;;6.68;;
16775;SDS011;8505;49.456;8.164;2022-12-07T00:40:53;11.07;;;6.47;;
16775;SDS011;8505;49.456;8.164;2022-12-07T00:43:22;9.45;;;6.30;;
16775;SDS011;8505;49.456;8.164;2022-12-07T00:45:51;10.80;;;6.50;;
16775;SDS011;8505;49.456;8.164;2022-12-07T00:48:19;11.40;;;6.90;;
16775;SDS011;8505;49.456;8.164;2022-12-07T00:50:47;10.68;;;6.35;;
16775;SDS011;8505;49.456;8.164;2022-12-07T00:53:15;11.18;;;6.47;;
16775;SDS011;8505;49.456;8.164;2022-12-07T00:55:44;11.35;;;6.85;;
16775;SDS011;8505;49.456;8.164;2022-12-07T00:58:12;12.98;;;6.70;;
16775;SDS011;8505;49.456;8.164;2022-12-07T01:00:41;12.20;;;6.72;;
16775;SDS011;8505;49.456;8.164;2022-12-07T01:03:10;11.02;;;6.63;;
16775;SDS011;8505;49.456;8.164;2022-12-07T01:05:39;10.55;;;6.50;;
16775;SDS011;8505;49.456;8.164;2022-12-07T01:08:15;11.10;;;6.43;;
16775;SDS011;8505;49.456;8.164;2022-12-07T01:10:43;10.52;;;6.63;;
16775;SDS011;8505;49.456;8.164;2022-12-07T01:13:11;10.55;;;6.10;;
16775;SDS011;8505;49.456;8.164;2022-12-07T01:15:40;11.18;;;6.47;;
16775;SDS011;8505;49.456;8.164;2022-12-07T01:18:09;10.05;;;6.03;;
16775;SDS011;8505;49.456;8.164;2022-12-07T01:20:37;11.60;;;6.35;;
16775;SDS011;8505;49.456;8.164;2022-12-07T01:23:04;10.25;;;6.47;;
16775;SDS011;8505;49.456;8.164;2022-12-07T01:25:32;10.30;;;6.20;;
16775;SDS011;8505;49.456;8.164;2022-12-07T01:28:00;10.07;;;6.28;;
16775;SDS011;8505;49.456;8.164;2022-12-07T01:30:28;11.13;;;6.25;;
16775;SDS011;8505;49.456;8.164;2022-12-07T01:32:56;9.77;;;5.93;;
16775;SDS011;8505;49.456;8.164;2022-12-07T01:35:24;9.57;;;6.25;;
16775;SDS011;8505;49.456;8.164;2022-12-07T01:37:52;10.97;;;6.90;;
16775;SDS011;8505;49.456;8.164;2022-12-07T01:40:20;9.38;;;6.13;;
16775;SDS011;8505;49.456;8.164;2022-12-07T01:42:48;10.88;;;6.35;;
16775;SDS011;8505;49.456;8.164;2022-12-07T01:48:12;10.05;;;6.18;;
16775;SDS011;8505;49.456;8.164;2022-12-07T01:50:45;9.85;;;6.22;;
16775;SDS011;8505;49.456;8.164;2022-12-07T01:53:16;9.68;;;5.88;;
16775;SDS011;8505;49.456;8.164;2022-12-07T01:55:45;9.43;;;5.90;;
16775;SDS011;8505;49.456;8.164;2022-12-07T01:58:16;9.48;;;6.07;;
16775;SDS011;8505;49.456;8.164;2022-12-07T02:00:45;11.52;;;6.18;;
16775;SDS011;8505;49.456;8.164;2022-12-07T02:03:15;9.68;;;6.15;;
16775;SDS011;8505;49.456;8.164;2022-12-07T02:05:47;9.85;;;6.03;;
16775;SDS011;8505;49.456;8.164;2022-12-07T02:08:16;10.18;;;5.97;;
16775;SDS011;8505;49.456;8.164;2022-12-07T02:10:44;9.35;;;6.18;;
16775;SDS011;8505;49.456;8.164;2022-12-07T02:13:13;8.82;;;5.80;;
16775;SDS011;8505;49.456;8.164;2022-12-07T02:15:53;8.57;;;5.45;;
16775;SDS011;8505;49.456;8.164;2022-12-07T02:18:37;8.52;;;5.57;;
16775;SDS011;8505;49.456;8.164;2022-12-07T02:21:15;9.15;;;5.53;;
16775;SDS011;8505;49.456;8.164;2022-12-07T02:23:59;9.25;;;5.60;;
16775;SDS011;8505;49.456;8.164;2022-12-07T02:29:52;10.02;;;6.00;;
16775;SDS011;8505;49.456;8.164;2022-12-07T02:32:27;8.40;;;5.35;;
16775;SDS011;8505;49.456;8.164;2022-12-07T02:35:02;9.07;;;5.47;;
16775;SDS011;8505;49.456;8.164;2022-12-07T02:37:35;8.77;;;5.30;;
16775;SDS011;8505;49.456;8.164;2022-12-07T02:40:08;10.13;;;5.78;;
16775;SDS011;8505;49.456;8.164;2022-12-07T02:42:42;9.63;;;5.65;;
16775;SDS011;8505;49.456;8.164;2022-12-07T02:45:15;8.77;;;5.55;;
16775;SDS011;8505;49.456;8.164;2022-12-07T02:47:47;9.30;;;5.50;;
16775;SDS011;8505;49.456;8.164;2022-12-07T02:50:18;9.38;;;6.00;;
16775;SDS011;8505;49.456;8.164;2022-12-07T02:52:47;9.23;;;5.25;;
16775;SDS011;8505;49.456;8.164;2022-12-07T02:55:15;10.05;;;5.63;;
16775;SDS011;8505;49.456;8.164;2022-12-07T02:57:53;10.02;;;5.50;;
16775;SDS011;8505;49.456;8.164;2022-12-07T03:00:34;9.70;;;5.30;;
16775;SDS011;8505;49.456;8.164;2022-12-07T03:03:10;8.48;;;5.45;;
16775;SDS011;8505;49.456;8.164;2022-12-07T03:08:39;8.53;;;5.20;;
16775;SDS011;8505;49.456;8.164;2022-12-07T03:11:16;9.30;;;5.28;;
16775;SDS011;8505;49.456;8.164;2022-12-07T03:13:49;9.23;;;5.80;;
16775;SDS011;8505;49.456;8.164;2022-12-07T03:16:25;8.40;;;5.47;;
16775;SDS011;8505;49.456;8.164;2022-12-07T03:18:57;9.43;;;5.88;;
16775;SDS011;8505;49.456;8.164;2022-12-07T03:21:29;8.38;;;5.20;;
16775;SDS011;8505;49.456;8.164;2022-12-07T03:24:03;8.77;;;5.37;;
16775;SDS011;8505;49.456;8.164;2022-12-07T03:26:35;8.77;;;5.57;;
16775;SDS011;8505;49.456;8.164;2022-12-07T03:29:07;8.68;;;5.50;;
16775;SDS011;8505;49.456;8.164;2022-12-07T03:31:40;9.73;;;5.40;;
16775;SDS011;8505;49.456;8.164;2022-12-07T03:34:14;8.90;;;5.20;;
16775;SDS011;8505;49.456;8.164;2022-12-07T03:36:47;8.63;;;5.50;;
16775;SDS011;8505;49.456;8.164;2022-12-07T03:39:22;9.85;;;5.68;;
16775;SDS011;8505;49.456;8.164;2022-12-07T03:41:55;8.77;;;5.50;;
16775;SDS011;8505;49.456;8.164;2022-12-07T03:44:26;8.85;;;5.60;;
16775;SDS011;8505;49.456;8.164;2022-12-07T03:46:58;8.32;;;5.25;;
16775;SDS011;8505;49.456;8.164;2022-12-07T03:49:30;8.85;;;5.40;;
16775;SDS011;8505;49.456;8.164;2022-12-07T03:52:07;9.70;;;5.87;;
16775;SDS011;8505;49.456;8.164;2022-12-07T03:54:40;8.77;;;5.15;;
16775;SDS011;8505;49.456;8.164;2022-12-07T03:57:12;8.15;;;5.47;;
16775;SDS011;8505;49.456;8.164;2022-12-07T03:59:41;9.57;;;5.53;;
16775;SDS011;8505;49.456;8.164;2022-12-07T04:02:11;9.05;;;5.72;;
16775;SDS011;8505;49.456;8.164;2022-12-07T04:04:41;9.27;;;5.93;;
16775;SDS011;8505;49.456;8.164;2022-12-07T04:07:10;9.23;;;5.53;;
16775;SDS011;8505;49.456;8.164;2022-12-07T04:09:39;8.20;;;5.13;;
16775;SDS011;8505;49.456;8.164;2022-12-07T04:12:06;9.73;;;5.68;;
16775;SDS011;8505;49.456;8.164;2022-12-07T04:14:34;9.50;;;5.70;;
16775;SDS011;8505;49.456;8.164;2022-12-07T04:17:02;8.88;;;5.60;;
16775;SDS011;8505;49.456;8.164;2022-12-07T04:19:32;9.30;;;5.45;;
16775;SDS011;8505;49.456;8.164;2022-12-07T04:22:01;11.07;;;5.83;;
16775;SDS011;8505;49.456;8.164;2022-12-07T04:24:30;10.10;;;5.40;;
16775;SDS011;8505;49.456;8.164;2022-12-07T04:26:58;9.23;;;5.72;;
16775;SDS011;8505;49.456;8.164;2022-12-07T04:29:26;9.43;;;5.78;;
16775;SDS011;8505;49.456;8.164;2022-12-07T04:31:54;10.48;;;6.03;;
16775;SDS011;8505;49.456;8.164;2022-12-07T04:34:22;9.45;;;5.78;;
16775;SDS011;8505;49.456;8.164;2022-12-07T04:36:51;11.13;;;5.93;;
16775;SDS011;8505;49.456;8.164;2022-12-07T04:39:19;10.75;;;6.03;;
16775;SDS011;8505;49.456;8.164;2022-12-07T04:41:49;10.90;;;5.72;;
16775;SDS011;8505;49.456;8.164;2022-12-07T04:44:18;10.65;;;6.00;;
16775;SDS011;8505;49.456;8.164;2022-12-07T04:46:46;9.80;;;5.90;;
16775;SDS011;8505;49.456;8.164;2022-12-07T04:49:14;10.20;;;5.70;;
16775;SDS011;8505;49.456;8.164;2022-12-07T04:51:43;9.02;;;5.55;;
16775;SDS011;8505;49.456;8.164;2022-12-07T04:54:14;11.25;;;5.88;;
16775;SDS011;8505;49.456;8.164;2022-12-07T04:56:43;10.18;;;6.13;;
16775;SDS011;8505;49.456;8.164;2022-12-07T04:59:11;10.35;;;6.43;;
16775;SDS011;8505;49.456;8.164;2022-12-07T05:01:39;13.73;;;6.50;;
16775;SDS011;8505;49.456;8.164;2022-12-07T05:04:07;11.97;;;6.33;;
16775;SDS011;8505;49.456;8.164;2022-12-07T05:06:35;12.25;;;6.63;;
16775;SDS011;8505;49.456;8.164;2022-12-07T05:09:03;12.57;;;6.97;;
16775;SDS011;8505;49.456;8.164;2022-12-07T05:11:32;12.10;;;7.07;;
16775;SDS011;8505;49.456;8.164;2022-12-07T05:14:07;13.02;;;7.03;;
16775;SDS011;8505;49.456;8.164;2022-12-07T05:16:37;11.82;;;7.03;;
16775;SDS011;8505;49.456;8.164;2022-12-07T05:19:05;11.00;;;7.30;;
16775;SDS011;8505;49.456;8.164;2022-12-07T05:21:33;10.95;;;7.00;;
16775;SDS011;8505;49.456;8.164;2022-12-07T05:24:01;12.20;;;7.10;;
16775;SDS011;8505;49.456;8.164;2022-12-07T05:26:30;13.35;;;7.32;;
16775;SDS011;8505;49.456;8.164;2022-12-07T05:28:59;12.48;;;7.13;;
16775;SDS011;8505;49.456;8.164;2022-12-07T05:31:27;14.03;;;7.67;;
16775;SDS011;8505;49.456;8.164;2022-12-07T05:33:55;13.10;;;7.47;;
16775;SDS011;8505;49.456;8.164;2022-12-07T05:36:22;11.20;;;6.63;;
16775;SDS011;8505;49.456;8.164;2022-12-07T05:38:50;12.27;;;7.20;;
16775;SDS011;8505;49.456;8.164;2022-12-07T05:41:18;11.18;;;6.55;;
16775;SDS011;8505;49.456;8.164;2022-12-07T05:44:05;13.55;;;7.13;;
16775;SDS011;8505;49.456;8.164;2022-12-07T05:46:33;12.23;;;7.10;;
16775;SDS011;8505;49.456;8.164;2022-12-07T05:49:01;14.73;;;7.53;;
16775;SDS011;8505;49.456;8.164;2022-12-07T05:51:29;13.43;;;7.75;;
16775;SDS011;8505;49.456;8.164;2022-12-07T05:53:57;12.18;;;7.00;;
16775;SDS011;8505;49.456;8.164;2022-12-07T05:56:24;12.32;;;7.65;;
16775;SDS011;8505;49.456;8.164;2022-12-07T05:58:52;13.25;;;8.02;;
16775;SDS011;8505;49.456;8.164;2022-12-07T06:01:39;11.82;;;7.40;;
16775;SDS011;8505;49.456;8.164;2022-12-07T06:04:07;13.02;;;7.55;;
16775;SDS011;8505;49.456;8.164;2022-12-07T06:06:34;12.98;;;7.88;;
16775;SDS011;8505;49.456;8.164;2022-12-07T06:09:02;11.50;;;7.50;;
16775;SDS011;8505;49.456;8.164;2022-12-07T06:11:31;12.88;;;7.30;;
16775;SDS011;8505;49.456;8.164;2022-12-07T06:14:16;12.48;;;7.85;;
16775;SDS011;8505;49.456;8.164;2022-12-07T06:16:45;13.80;;;7.47;;
16775;SDS011;8505;49.456;8.164;2022-12-07T06:19:13;15.63;;;7.97;;
16775;SDS011;8505;49.456;8.164;2022-12-07T06:21:40;13.85;;;7.90;;
16775;SDS011;8505;49.456;8.164;2022-12-07T06:24:09;12.73;;;8.00;;
16775;SDS011;8505;49.456;8.164;2022-12-07T06:26:38;13.10;;;7.97;;
16775;SDS011;8505;49.456;8.164;2022-12-07T06:29:06;13.40;;;8.00;;
16775;SDS011;8505;49.456;8.164;2022-12-07T06:31:36;14.30;;;7.97;;
16775;SDS011;8505;49.456;8.164;2022-12-07T06:34:06;14.43;;;8.30;;
16775;SDS011;8505;49.456;8.164;2022-12-07T06:36:37;14.98;;;8.77;;
16775;SDS011;8505;49.456;8.164;2022-12-07T06:39:04;15.40;;;9.07;;
16775;SDS011;8505;49.456;8.164;2022-12-07T06:41:33;14.18;;;8.70;;
16775;SDS011;8505;49.456;8.164;2022-12-07T06:44:01;15.57;;;8.93;;
16775;SDS011;8505;49.456;8.164;2022-12-07T06:46:29;15.25;;;8.65;;
16775;SDS011;8505;49.456;8.164;2022-12-07T06:48:57;19.20;;;10.70;;
16775;SDS011;8505;49.456;8.164;2022-12-07T06:51:26;18.08;;;10.32;;
16775;SDS011;8505;49.456;8.164;2022-12-07T06:53:54;15.57;;;8.95;;
16775;SDS011;8505;49.456;8.164;2022-12-07T06:56:23;15.43;;;9.13;;
16775;SDS011;8505;49.456;8.164;2022-12-07T06:58:51;16.00;;;9.30;;
16775;SDS011;8505;49.456;8.164;2022-12-07T07:01:19;14.70;;;9.00;;
16775;SDS011;8505;49.456;8.164;2022-12-07T07:03:47;17.70;;;9.48;;
16775;SDS011;8505;49.456;8.164;2022-12-07T07:06:14;17.05;;;9.52;;
16775;SDS011;8505;49.456;8.164;2022-12-07T07:08:43;15.90;;;9.05;;
16775;SDS011;8505;49.456;8.164;2022-12-07T07:11:11;15.90;;;9.10;;
16775;SDS011;8505;49.456;8.164;2022-12-07T07:13:39;14.27;;;9.00;;
16775;SDS011;8505;49.456;8.164;2022-12-07T07:16:07;16.52;;;9.30;;
16775;SDS011;8505;49.456;8.164;2022-12-07T07:18:35;16.55;;;9.10;;
16775;SDS011;8505;49.456;8.164;2022-12-07T07:21:02;17.33;;;9.37;;
16775;SDS011;8505;49.456;8.164;2022-12-07T07:23:31;15.73;;;8.80;;
16775;SDS011;8505;49.456;8.164;2022-12-07T07:26:00;16.27;;;9.50;;
16775;SDS011;8505;49.456;8.164;2022-12-07T07:28:27;17.00;;;9.13;;
16775;SDS011;8505;49.456;8.164;2022-12-07T07:30:55;16.07;;;9.40;;
16775;SDS011;8505;49.456;8.164;2022-12-07T07:33:23;14.05;;;8.73;;
16775;SDS011;8505;49.456;8.164;2022-12-07T07:35:51;17.30;;;9.25;;
16775;SDS011;8505;49.456;8.164;2022-12-07T07:38:18;15.75;;;9.30;;
16775;SDS011;8505;49.456;8.164;2022-12-07T07:40:46;15.73;;;9.15;;
16775;SDS011;8505;49.456;8.164;2022-12-07T07:43:15;17.35;;;9.52;;
16775;SDS011;8505;49.456;8.164;2022-12-07T07:45:43;17.25;;;9.77;;
16775;SDS011;8505;49.456;8.164;2022-12-07T07:48:11;16.25;;;9.65;;
16775;SDS011;8505;49.456;8.164;2022-12-07T07:50:39;17.17;;;9.70;;
16775;SDS011;8505;49.456;8.164;2022-12-07T07:53:06;16.83;;;9.50;;
16775;SDS011;8505;49.456;8.164;2022-12-07T07:55:34;18.33;;;10.40;;
16775;SDS011;8505;49.456;8.164;2022-12-07T07:58:02;18.87;;;9.77;;
16775;SDS011;8505;49.456;8.164;2022-12-07T08:00:31;15.38;;;9.32;;
16775;SDS011;8505;49.456;8.164;2022-12-07T08:02:59;17.73;;;9.85;;
16775;SDS011;8505;49.456;8.164;2022-12-07T08:05:26;17.45;;;10.00;;
16775;SDS011;8505;49.456;8.164;2022-12-07T08:07:54;16.15;;;9.35;;
16775;SDS011;8505;49.456;8.164;2022-12-07T08:10:21;17.88;;;10.02;;
16775;SDS011;8505;49.456;8.164;2022-12-07T08:12:49;15.57;;;9.77;;
16775;SDS011;8505;49.456;8.164;2022-12-07T08:15:36;15.85;;;10.05;;
16775;SDS011;8505;49.456;8.164;2022-12-07T08:18:05;18.85;;;9.65;;
16775;SDS011;8505;49.456;8.164;2022-12-07T08:20:34;17.48;;;9.25;;
16775;SDS011;8505;49.456;8.164;2022-12-07T08:23:04;16.50;;;9.52;;
16775;SDS011;8505;49.456;8.164;2022-12-07T08:25:32;15.43;;;9.40;;
16775;SDS011;8505;49.456;8.164;2022-12-07T08:28:00;16.63;;;9.80;;
16775;SDS011;8505;49.456;8.164;2022-12-07T08:30:28;16.40;;;9.43;;
16775;SDS011;8505;49.456;8.164;2022-12-07T08:32:58;15.83;;;9.23;;
16775;SDS011;8505;49.456;8.164;2022-12-07T08:35:25;15.82;;;9.25;;
16775;SDS011;8505;49.456;8.164;2022-12-07T08:37:53;15.07;;;9.30;;
16775;SDS011;8505;49.456;8.164;2022-12-07T08:40:21;15.98;;;9.15;;
16775;SDS011;8505;49.456;8.164;2022-12-07T08:42:49;15.40;;;8.80;;
16775;SDS011;8505;49.456;8.164;2022-12-07T08:45:17;14.77;;;9.00;;
16775;SDS011;8505;49.456;8.164;2022-12-07T08:47:53;22.20;;;11.95;;
16775;SDS011;8505;49.456;8.164;2022-12-07T08:50:25;21.58;;;12.63;;
16775;SDS011;8505;49.456;8.164;2022-12-07T08:52:54;17.58;;;10.13;;
16775;SDS011;8505;49.456;8.164;2022-12-07T08:55:23;17.65;;;10.30;;
16775;SDS011;8505;49.456;8.164;2022-12-07T08:57:52;16.07;;;9.80;;
16775;SDS011;8505;49.456;8.164;2022-12-07T09:00:19;16.20;;;9.32;;
16775;SDS011;8505;49.456;8.164;2022-12-07T09:02:47;15.35;;;9.50;;
16775;SDS011;8505;49.456;8.164;2022-12-07T09:05:15;15.88;;;9.13;;
16775;SDS011;8505;49.456;8.164;2022-12-07T09:07:45;14.75;;;9.43;;
16775;SDS011;8505;49.456;8.164;2022-12-07T09:10:14;14.82;;;9.48;;
16775;SDS011;8505;49.456;8.164;2022-12-07T09:12:42;15.63;;;9.13;;
16775;SDS011;8505;49.456;8.164;2022-12-07T09:15:10;15.30;;;9.45;;
16775;SDS011;8505;49.456;8.164;2022-12-07T09:17:37;16.63;;;9.18;;
16775;SDS011;8505;49.456;8.164;2022-12-07T09:20:05;14.48;;;9.07;;
16775;SDS011;8505;49.456;8.164;2022-12-07T09:22:34;15.45;;;9.13;;
16775;SDS011;8505;49.456;8.164;2022-12-07T09:25:03;14.03;;;8.63;;
16775;SDS011;8505;49.456;8.164;2022-12-07T09:27:32;15.52;;;8.55;;
16775;SDS011;8505;49.456;8.164;2022-12-07T09:29:59;15.32;;;8.80;;
16775;SDS011;8505;49.456;8.164;2022-12-07T09:32:28;13.05;;;8.50;;
16775;SDS011;8505;49.456;8.164;2022-12-07T09:34:56;14.27;;;8.20;;
16775;SDS011;8505;49.456;8.164;2022-12-07T09:37:23;15.57;;;8.70;;
16775;SDS011;8505;49.456;8.164;2022-12-07T09:39:51;16.35;;;8.55;;
16775;SDS011;8505;49.456;8.164;2022-12-07T09:42:25;14.52;;;8.55;;
16775;SDS011;8505;49.456;8.164;2022-12-07T09:44:56;12.75;;;7.78;;
16775;SDS011;8505;49.456;8.164;2022-12-07T09:47:25;12.95;;;7.88;;
16775;SDS011;8505;49.456;8.164;2022-12-07T09:49:53;12.70;;;7.87;;
16775;SDS011;8505;49.456;8.164;2022-12-07T09:52:27;12.98;;;7.90;;
16775;SDS011;8505;49.456;8.164;2022-12-07T09:55:07;12.65;;;8.00;;
16775;SDS011;8505;49.456;8.164;2022-12-07T09:57:39;11.43;;;7.45;;
16775;SDS011;8505;49.456;8.164;2022-12-07T10:00:10;13.75;;;8.02;;
16775;SDS011;8505;49.456;8.164;2022-12-07T10:02:41;14.18;;;8.02;;
16775;SDS011;8505;49.456;8.164;2022-12-07T10:05:12;13.60;;;7.72;;
16775;SDS011;8505;49.456;8.164;2022-12-07T10:07:49;15.52;;;9.50;;
16775;SDS011;8505;49.456;8.164;2022-12-07T10:10:17;16.50;;;10.35;;
16775;SDS011;8505;49.456;8.164;2022-12-07T10:12:56;16.83;;;10.07;;
16775;SDS011;8505;49.456;8.164;2022-12-07T10:15:45;14.32;;;8.45;;
16775;SDS011;8505;49.456;8.164;2022-12-07T10:18:17;18.38;;;11.57;;
16775;SDS011;8505;49.456;8.164;2022-12-07T10:20:47;17.27;;;10.00;;
16775;SDS011;8505;49.456;8.164;2022-12-07T10:23:15;17.40;;;10.18;;
16775;SDS011;8505;49.456;8.164;2022-12-07T10:25:44;12.65;;;7.13;;
16775;SDS011;8505;49.456;8.164;2022-12-07T10:28:16;14.02;;;7.68;;
16775;SDS011;8505;49.456;8.164;2022-12-07T10:30:49;14.20;;;8.00;;
16775;SDS011;8505;49.456;8.164;2022-12-07T10:33:29;10.73;;;5.80;;
16775;SDS011;8505;49.456;8.164;2022-12-07T10:36:00;11.07;;;6.63;;
16775;SDS011;8505;49.456;8.164;2022-12-07T10:38:36;12.32;;;6.28;;
16775;SDS011;8505;49.456;8.164;2022-12-07T10:41:12;9.50;;;5.72;;
16775;SDS011;8505;49.456;8.164;2022-12-07T10:43:50;9.50;;;5.68;;
16775;SDS011;8505;49.456;8.164;2022-12-07T10:52:32;9.50;;;5.57;;
16775;SDS011;8505;49.456;8.164;2022-12-07T10:55:17;10.32;;;5.63;;
16775;SDS011;8505;49.456;8.164;2022-12-07T10:57:54;9.57;;;5.70;;
16775;SDS011;8505;49.456;8.164;2022-12-07T11:00:44;8.57;;;5.30;;
16775;SDS011;8505;49.456;8.164;2022-12-07T11:06:14;9.37;;;4.90;;
16775;SDS011;8505;49.456;8.164;2022-12-07T11:08:56;8.80;;;4.60;;
16775;SDS011;8505;49.456;8.164;2022-12-07T11:11:33;9.35;;;4.95;;
16775;SDS011;8505;49.456;8.164;2022-12-07T11:14:05;9.00;;;5.40;;
16775;SDS011;8505;49.456;8.164;2022-12-07T11:16:51;12.15;;;6.45;;
16775;SDS011;8505;49.456;8.164;2022-12-07T11:19:30;9.82;;;6.10;;
16775;SDS011;8505;49.456;8.164;2022-12-07T11:22:09;10.73;;;5.18;;
16775;SDS011;8505;49.456;8.164;2022-12-07T11:24:45;7.32;;;4.60;;
16775;SDS011;8505;49.456;8.164;2022-12-07T11:27:19;8.55;;;5.47;;
16775;SDS011;8505;49.456;8.164;2022-12-07T11:30:07;8.60;;;5.40;;
16775;SDS011;8505;49.456;8.164;2022-12-07T11:32:49;7.20;;;4.30;;
16775;SDS011;8505;49.456;8.164;2022-12-07T11:35:24;8.05;;;4.13;;
16775;SDS011;8505;49.456;8.164;2022-12-07T11:38:10;7.47;;;4.10;;
16775;SDS011;8505;49.456;8.164;2022-12-07T11:40:42;7.28;;;4.15;;
16775;SDS011;8505;49.456;8.164;2022-12-07T11:43:14;6.30;;;3.80;;
16775;SDS011;8505;49.456;8.164;2022-12-07T11:45:51;6.53;;;3.60;;
16775;SDS011;8505;49.456;8.164;2022-12-07T11:48:24;6.03;;;3.35;;
16775;SDS011;8505;49.456;8.164;2022-12-07T11:50:59;5.35;;;3.10;;
16775;SDS011;8505;49.456;8.164;2022-12-07T11:53:30;5.80;;;3.30;;
16775;SDS011;8505;49.456;8.164;2022-12-07T11:56:03;6.47;;;3.40;;
16775;SDS011;8505;49.456;8.164;2022-12-07T11:58:42;7.57;;;3.72;;
16775;SDS011;8505;49.456;8.164;2022-12-07T12:01:18;7.25;;;3.30;;
16775;SDS011;8505;49.456;8.164;2022-12-07T12:04:02;7.13;;;3.60;;
16775;SDS011;8505;49.456;8.164;2022-12-07T12:06:41;5.85;;;3.25;;
16775;SDS011;8505;49.456;8.164;2022-12-07T12:09:11;6.50;;;3.22;;
16775;SDS011;8505;49.456;8.164;2022-12-07T12:12:05;6.25;;;3.05;;
16775;SDS011;8505;49.456;8.164;2022-12-07T12:15:18;6.10;;;3.60;;
16775;SDS011;8505;49.456;8.164;2022-12-07T12:17:59;7.93;;;3.08;;
16775;SDS011;8505;49.456;8.164;2022-12-07T12:20:39;7.25;;;3.50;;
16775;SDS011;8505;49.456;8.164;2022-12-07T12:23:12;10.20;;;3.92;;
16775;SDS011;8505;49.456;8.164;2022-12-07T12:25:44;5.82;;;2.70;;
16775;SDS011;8505;49.456;8.164;2022-12-07T12:28:24;5.88;;;2.80;;
16775;SDS011;8505;49.456;8.164;2022-12-07T12:31:07;7.15;;;3.03;;
16775;SDS011;8505;49.456;8.164;2022-12-07T12:33:38;9.98;;;4.07;;
16775;SDS011;8505;49.456;8.164;2022-12-07T12:36:22;6.50;;;2.95;;
16775;SDS011;8505;49.456;8.164;2022-12-07T12:39:09;6.88;;;2.95;;
16775;SDS011;8505;49.456;8.164;2022-12-07T12:47:54;6.68;;;3.08;;
16775;SDS011;8505;49.456;8.164;2022-12-07T12:50:25;7.68;;;3.47;;
16775;SDS011;8505;49.456;8.164;2022-12-07T12:52:58;6.75;;;3.10;;
16775;SDS011;8505;49.456;8.164;2022-12-07T12:58:35;6.97;;;3.25;;
16775;SDS011;8505;49.456;8.164;2022-12-07T13:04:24;6.78;;;3.30;;
16775;SDS011;8505;49.456;8.164;2022-12-07T13:07:11;6.03;;;3.30;;
16775;SDS011;8505;49.456;8.164;2022-12-07T13:09:44;7.57;;;3.85;;
16775;SDS011;8505;49.456;8.164;2022-12-07T13:12:13;7.20;;;3.43;;
16775;SDS011;8505;49.456;8.164;2022-12-07T13:14:52;7.85;;;3.72;;
16775;SDS011;8505;49.456;8.164;2022-12-07T13:23:23;5.00;;;2.30;;
16775;SDS011;8505;49.456;8.164;2022-12-07T13:26:12;3.92;;;2.40;;
16775;SDS011;8505;49.456;8.164;2022-12-07T13:28:44;11.63;;;5.93;;
16775;SDS011;8505;49.456;8.164;2022-12-07T13:31:29;5.40;;;2.43;;
16775;SDS011;8505;49.456;8.164;2022-12-07T13:34:00;4.80;;;2.50;;
16775;SDS011;8505;49.456;8.164;2022-12-07T13:36:30;6.15;;;2.75;;
16775;SDS011;8505;49.456;8.164;2022-12-07T13:39:17;4.65;;;2.10;;
16775;SDS011;8505;49.456;8.164;2022-12-07T13:41:50;6.10;;;3.33;;
16775;SDS011;8505;49.456;8.164;2022-12-07T13:44:19;5.47;;;2.90;;
16775;SDS011;8505;49.456;8.164;2022-12-07T13:46:49;4.03;;;2.45;;
16775;SDS011;8505;49.456;8.164;2022-12-07T13:49:22;5.13;;;2.13;;
16775;SDS011;8505;49.456;8.164;2022-12-07T13:51:51;3.83;;;2.10;;
16775;SDS011;8505;49.456;8.164;2022-12-07T13:54:20;3.40;;;1.85;;
16775;SDS011;8505;49.456;8.164;2022-12-07T13:56:51;4.60;;;2.00;;
16775;SDS011;8505;49.456;8.164;2022-12-07T13:59:21;5.63;;;2.30;;
16775;SDS011;8505;49.456;8.164;2022-12-07T14:01:51;3.83;;;1.77;;
16775;SDS011;8505;49.456;8.164;2022-12-07T14:04:29;4.50;;;1.90;;
16775;SDS011;8505;49.456;8.164;2022-12-07T14:06:58;4.57;;;2.27;;
16775;SDS011;8505;49.456;8.164;2022-12-07T14:09:28;5.60;;;2.38;;
16775;SDS011;8505;49.456;8.164;2022-12-07T14:11:58;6.10;;;2.97;;
16775;SDS011;8505;49.456;8.164;2022-12-07T14:14:26;4.20;;;2.17;;
16775;SDS011;8505;49.456;8.164;2022-12-07T14:17:08;4.53;;;2.40;;
16775;SDS011;8505;49.456;8.164;2022-12-07T14:19:41;4.25;;;2.50;;
16775;SDS011;8505;49.456;8.164;2022-12-07T14:22:25;5.80;;;2.60;;
16775;SDS011;8505;49.456;8.164;2022-12-07T14:24:58;4.35;;;1.83;;
16775;SDS011;8505;49.456;8.164;2022-12-07T14:27:48;4.60;;;1.92;;
16775;SDS011;8505;49.456;8.164;2022-12-07T14:30:25;5.18;;;2.10;;
16775;SDS011;8505;49.456;8.164;2022-12-07T14:32:56;5.15;;;2.00;;
16775;SDS011;8505;49.456;8.164;2022-12-07T14:35:26;5.05;;;2.17;;
16775;SDS011;8505;49.456;8.164;2022-12-07T14:37:54;4.75;;;1.95;;
16775;SDS011;8505;49.456;8.164;2022-12-07T14:40:22;7.82;;;3.85;;
16775;SDS011;8505;49.456;8.164;2022-12-07T14:42:54;6.07;;;2.80;;
16775;SDS011;8505;49.456;8.164;2022-12-07T14:45:24;4.95;;;2.50;;
16775;SDS011;8505;49.456;8.164;2022-12-07T14:47:52;4.90;;;2.28;;
16775;SDS011;8505;49.456;8.164;2022-12-07T14:50:41;4.13;;;2.20;;
16775;SDS011;8505;49.456;8.164;2022-12-07T14:53:31;4.80;;;2.40;;
16775;SDS011;8505;49.456;8.164;2022-12-07T14:56:02;5.85;;;2.53;;
16775;SDS011;8505;49.456;8.164;2022-12-07T14:58:33;5.75;;;2.50;;
16775;SDS011;8505;49.456;8.164;2022-12-07T15:01:01;4.00;;;2.30;;
16775;SDS011;8505;49.456;8.164;2022-12-07T15:03:29;4.90;;;2.90;;
16775;SDS011;8505;49.456;8.164;2022-12-07T15:05:57;4.60;;;2.42;;
16775;SDS011;8505;49.456;8.164;2022-12-07T15:08:25;6.38;;;2.60;;
16775;SDS011;8505;49.456;8.164;2022-12-07T15:10:52;5.50;;;2.78;;
16775;SDS011;8505;49.456;8.164;2022-12-07T15:13:20;7.53;;;2.95;;
16775;SDS011;8505;49.456;8.164;2022-12-07T15:16:08;7.38;;;3.45;;
16775;SDS011;8505;49.456;8.164;2022-12-07T15:18:38;6.45;;;3.33;;
16775;SDS011;8505;49.456;8.164;2022-12-07T15:21:18;8.27;;;3.80;;
16775;SDS011;8505;49.456;8.164;2022-12-07T15:23:46;9.02;;;4.25;;
16775;SDS011;8505;49.456;8.164;2022-12-07T15:26:14;8.20;;;4.18;;
16775;SDS011;8505;49.456;8.164;2022-12-07T15:28:41;9.10;;;5.05;;
16775;SDS011;8505;49.456;8.164;2022-12-07T15:31:12;9.68;;;4.90;;
16775;SDS011;8505;49.456;8.164;2022-12-07T15:34:00;7.72;;;5.20;;
16775;SDS011;8505;49.456;8.164;2022-12-07T15:36:29;8.18;;;4.68;;
16775;SDS011;8505;49.456;8.164;2022-12-07T15:38:58;10.50;;;5.20;;
16775;SDS011;8505;49.456;8.164;2022-12-07T15:41:41;8.50;;;4.82;;
16775;SDS011;8505;49.456;8.164;2022-12-07T15:44:09;6.80;;;4.47;;
16775;SDS011;8505;49.456;8.164;2022-12-07T15:46:58;7.57;;;4.50;;
16775;SDS011;8505;49.456;8.164;2022-12-07T15:49:26;10.52;;;5.40;;
16775;SDS011;8505;49.456;8.164;2022-12-07T15:51:54;10.38;;;5.25;;
16775;SDS011;8505;49.456;8.164;2022-12-07T15:54:23;11.82;;;5.60;;
16775;SDS011;8505;49.456;8.164;2022-12-07T15:56:52;10.23;;;5.57;;